Time;durP1;ratioP1;P1;durP2;ratioP2;P2;SDS_P1;SDS_P2;PMS_P1;PMS_P2;Temp;Humidity;BMP_temperature;BMP_pressure;BME280_temperature;BME280_humidity;BME280_pressure;Samples;Min_cycle;Max_cycle;Signal;HPM_P1;HPM_P2
2022/02/16 05:00:12;;;;;;;0.83;0.80;;;6.90;99.90;;;;;;6032302;23;20481;31
2022/02/16 05:02:40;;;;;;;1.23;0.80;;;6.80;99.90;;;;;;4921448;29;20465;-65
2022/02/16 05:05:08;;;;;;;0.70;0.70;;;6.90;99.90;;;;;;4927220;29;20912;-65
2022/02/16 05:07:35;;;;;;;0.80;0.80;;;6.80;99.90;;;;;;4919772;29;20441;-63
2022/02/16 05:10:03;;;;;;;0.63;0.63;;;6.90;99.90;;;;;;4919394;29;20472;-63
2022/02/16 05:12:32;;;;;;;0.60;0.47;;;6.90;99.90;;;;;;4919554;29;20839;-64
2022/02/16 05:15:00;;;;;;;0.60;0.60;;;6.90;99.90;;;;;;4919326;29;20873;-64
2022/02/16 05:17:28;;;;;;;0.63;0.53;;;6.90;99.90;;;;;;4919275;29;20494;-63
2022/02/16 05:19:55;;;;;;;2.00;0.60;;;6.80;99.90;;;;;;4919391;29;20461;-63
2022/02/16 05:22:22;;;;;;;0.57;0.57;;;6.80;99.90;;;;;;4919411;29;20482;-64
2022/02/16 05:24:48;;;;;;;0.77;0.70;;;6.80;99.90;;;;;;4919086;29;20937;-64
2022/02/16 05:27:15;;;;;;;0.57;0.57;;;6.90;99.90;;;;;;4919329;29;20457;-64
2022/02/16 05:29:42;;;;;;;0.60;0.50;;;6.90;99.90;;;;;;4919298;29;20465;-64
2022/02/16 05:32:09;;;;;;;4.00;0.70;;;6.90;99.90;;;;;;4918778;29;20985;-64
2022/02/16 05:34:37;;;;;;;2.67;0.70;;;6.90;99.90;;;;;;4919094;29;20461;-64
2022/02/16 05:37:04;;;;;;;0.50;0.50;;;6.90;99.90;;;;;;4919040;29;20937;-63
2022/02/16 05:39:31;;;;;;;0.83;0.50;;;6.90;99.90;;;;;;4919993;29;20465;-64
2022/02/16 05:41:58;;;;;;;0.50;0.40;;;6.90;99.90;;;;;;4924044;29;20481;-65
2022/02/16 05:44:24;;;;;;;0.93;0.60;;;7.00;99.90;;;;;;4932195;29;20928;-65
2022/02/16 05:46:51;;;;;;;0.70;0.70;;;7.00;99.90;;;;;;4922008;29;20941;-66
2022/02/16 05:49:18;;;;;;;0.40;0.40;;;7.00;99.90;;;;;;4920653;29;20458;-64
2022/02/16 05:51:46;;;;;;;1.30;1.30;;;6.90;99.90;;;;;;4919430;29;20477;-66
2022/02/16 05:54:13;;;;;;;0.60;0.60;;;6.90;99.90;;;;;;4919625;29;20442;-64
2022/02/16 05:56:39;;;;;;;0.50;0.50;;;6.90;99.90;;;;;;4919661;29;20529;-64
2022/02/16 05:59:06;;;;;;;0.60;0.60;;;6.90;99.90;;;;;;4919219;29;20886;-64
2022/02/16 06:01:33;;;;;;;1.33;0.80;;;6.90;99.90;;;;;;4919176;29;20489;-64
2022/02/16 06:04:00;;;;;;;0.50;0.50;;;6.80;99.90;;;;;;4918288;29;20976;-65
2022/02/16 06:06:27;;;;;;;0.73;0.53;;;6.90;99.90;;;;;;4918370;29;20465;-64
2022/02/16 06:08:55;;;;;;;0.97;0.80;;;6.80;99.90;;;;;;4918242;29;20461;-64
2022/02/16 06:11:22;;;;;;;0.63;0.63;;;6.90;99.90;;;;;;4917933;29;20484;-63
2022/02/16 06:13:48;;;;;;;3.93;0.80;;;6.90;99.90;;;;;;4918421;29;20457;-63
2022/02/16 06:16:15;;;;;;;0.97;0.50;;;6.90;99.90;;;;;;4918285;29;20481;-64
2022/02/16 06:18:42;;;;;;;0.90;0.80;;;7.00;99.90;;;;;;4917839;29;20461;-64
2022/02/16 06:21:08;;;;;;;1.20;0.77;;;7.00;99.90;;;;;;4918153;29;20489;-65
2022/02/16 06:23:35;;;;;;;1.20;0.70;;;7.10;99.90;;;;;;4918362;29;20468;-65
2022/02/16 06:26:03;;;;;;;5.30;0.80;;;7.10;99.90;;;;;;4918990;29;20457;-64
2022/02/16 06:28:30;;;;;;;0.47;0.47;;;7.10;99.90;;;;;;4918738;29;20460;-64
2022/02/16 06:30:56;;;;;;;0.60;0.60;;;7.10;99.90;;;;;;4918529;29;20492;-64
2022/02/16 06:33:23;;;;;;;0.53;0.43;;;7.00;99.90;;;;;;4919246;29;20460;-65
2022/02/16 06:35:50;;;;;;;0.60;0.60;;;7.00;99.90;;;;;;4917891;29;20525;-64
2022/02/16 06:38:17;;;;;;;1.27;0.60;;;7.00;99.90;;;;;;4918219;29;20468;-64
2022/02/16 06:40:44;;;;;;;1.13;0.90;;;7.10;99.90;;;;;;4918631;29;20533;-65
2022/02/16 06:43:15;;;;;;;0.50;0.50;;;7.00;99.90;;;;;;4918227;29;20457;-66
2022/02/16 06:45:41;;;;;;;2.30;0.80;;;7.10;99.90;;;;;;4918093;29;20453;-64
2022/02/16 06:48:08;;;;;;;1.10;0.87;;;7.00;99.90;;;;;;4918448;29;20911;-65
2022/02/16 06:50:35;;;;;;;0.73;0.60;;;7.10;99.90;;;;;;4918233;29;20886;-65
2022/02/16 06:53:02;;;;;;;1.57;0.70;;;7.10;99.90;;;;;;4918359;29;20468;-64
2022/02/16 06:55:29;;;;;;;0.67;0.50;;;7.00;99.90;;;;;;4918340;29;20485;-64
2022/02/16 06:57:57;;;;;;;3.70;0.70;;;7.10;99.90;;;;;;4918138;29;20461;-66
2022/02/16 07:00:25;;;;;;;0.70;0.70;;;7.10;99.90;;;;;;4918324;29;20489;-64
2022/02/16 07:02:52;;;;;;;0.53;0.53;;;7.10;99.90;;;;;;4918088;29;20457;-66
2022/02/16 07:05:18;;;;;;;1.13;0.80;;;7.10;99.90;;;;;;4917442;29;20969;-65
2022/02/16 07:07:45;;;;;;;0.60;0.60;;;7.20;99.90;;;;;;4918569;29;20465;-65
2022/02/16 07:10:12;;;;;;;0.70;0.60;;;7.20;99.90;;;;;;4921113;29;20525;-65
2022/02/16 07:12:39;;;;;;;0.60;0.60;;;7.20;99.90;;;;;;4918577;29;20974;-65
2022/02/16 07:15:11;;;;;;;0.60;0.60;;;7.20;99.90;;;;;;4925360;29;20906;-65
2022/02/16 07:17:40;;;;;;;3.00;0.70;;;7.10;99.90;;;;;;4927463;29;20996;-65
2022/02/16 07:20:09;;;;;;;0.97;0.57;;;7.20;99.90;;;;;;4918607;29;20453;-65
2022/02/16 07:22:39;;;;;;;1.17;0.70;;;7.10;99.90;;;;;;4918768;29;20481;-65
2022/02/16 07:25:07;;;;;;;0.60;0.57;;;7.20;99.90;;;;;;4918347;29;20446;-65
2022/02/16 07:27:34;;;;;;;0.80;0.80;;;7.10;99.90;;;;;;4918486;29;20458;-65
2022/02/16 07:30:00;;;;;;;1.00;0.50;;;7.10;99.90;;;;;;4919005;29;20460;-64
2022/02/16 07:32:27;;;;;;;0.53;0.53;;;7.00;99.90;;;;;;4918176;29;20488;-65
2022/02/16 07:34:55;;;;;;;0.70;0.63;;;7.10;99.90;;;;;;4918257;29;20806;-64
2022/02/16 07:37:22;;;;;;;0.60;0.60;;;7.20;99.90;;;;;;4917864;29;20489;-65
2022/02/16 07:39:48;;;;;;;0.87;0.50;;;7.00;99.90;;;;;;4920800;29;20468;-65
2022/02/16 07:42:15;;;;;;;0.60;0.60;;;7.00;99.90;;;;;;4924874;29;20988;-66
2022/02/16 07:44:42;;;;;;;0.50;0.50;;;7.00;99.90;;;;;;4919810;29;20484;-67
2022/02/16 07:47:09;;;;;;;0.50;0.50;;;7.00;99.90;;;;;;4917916;29;20961;-67
2022/02/16 07:49:36;;;;;;;3.50;0.87;;;6.90;99.90;;;;;;4917348;29;20949;-66
2022/02/16 07:52:05;;;;;;;1.73;0.63;;;6.90;99.90;;;;;;4917701;29;20481;-66
2022/02/16 07:54:32;;;;;;;2.63;0.67;;;6.80;99.90;;;;;;4918383;29;20800;-66
2022/02/16 07:56:59;;;;;;;0.60;0.60;;;6.80;99.90;;;;;;4917659;29;20509;-66
2022/02/16 07:59:26;;;;;;;1.67;0.80;;;6.70;99.90;;;;;;4917452;29;20945;-67
2022/02/16 08:01:52;;;;;;;5.30;1.33;;;6.70;99.90;;;;;;4917139;29;20500;-67
2022/02/16 08:04:19;;;;;;;1.10;0.70;;;6.70;99.90;;;;;;4917683;29;20462;-66
2022/02/16 08:06:47;;;;;;;0.57;0.57;;;6.80;99.90;;;;;;4919396;29;20460;-67
2022/02/16 08:09:17;;;;;;;0.50;0.50;;;6.80;99.90;;;;;;4921810;29;20471;-66
2022/02/16 08:11:45;;;;;;;0.93;0.50;;;6.90;99.90;;;;;;4920818;29;21001;-67
2022/02/16 08:14:12;;;;;;;0.60;0.60;;;6.80;99.90;;;;;;4920701;29;20471;-67
2022/02/16 08:16:40;;;;;;;0.80;0.70;;;6.80;99.90;;;;;;4920550;29;20477;-66
2022/02/16 08:19:09;;;;;;;0.70;0.70;;;6.80;99.90;;;;;;4920890;29;20535;-66
2022/02/16 08:21:37;;;;;;;1.17;0.60;;;6.80;99.90;;;;;;4920824;29;20480;-66
2022/02/16 08:24:04;;;;;;;0.60;0.60;;;6.70;99.90;;;;;;4920703;29;20469;-66
2022/02/16 08:26:32;;;;;;;0.70;0.70;;;6.70;99.90;;;;;;4920428;29;20460;-66
2022/02/16 08:28:59;;;;;;;2.50;0.60;;;6.70;99.90;;;;;;4920186;29;20965;-67
2022/02/16 08:31:26;;;;;;;1.13;1.00;;;6.70;99.90;;;;;;4920322;29;20496;-66
2022/02/16 08:33:53;;;;;;;0.90;0.90;;;6.70;99.90;;;;;;4920313;29;20465;-66
2022/02/16 08:36:19;;;;;;;0.87;0.80;;;6.70;99.90;;;;;;4920495;29;20473;-66
2022/02/16 08:38:46;;;;;;;1.23;1.03;;;6.60;99.90;;;;;;4920511;29;20461;-66
2022/02/16 08:41:13;;;;;;;0.70;0.70;;;6.60;99.90;;;;;;4920321;29;20571;-66
2022/02/16 08:43:42;;;;;;;0.87;0.70;;;6.60;99.90;;;;;;4920322;29;20493;-67
2022/02/16 08:46:09;;;;;;;2.43;0.50;;;6.60;99.90;;;;;;4921717;29;20460;-66
2022/02/16 08:48:36;;;;;;;0.60;0.60;;;6.60;99.90;;;;;;4925656;29;20483;-66
2022/02/16 08:51:03;;;;;;;1.37;1.00;;;6.60;99.90;;;;;;4922805;29;20481;-66
2022/02/16 08:53:29;;;;;;;0.83;0.83;;;6.70;99.90;;;;;;4921100;29;20806;-66
2022/02/16 08:55:57;;;;;;;1.03;0.93;;;6.70;99.90;;;;;;4920909;29;20484;-67
2022/02/16 08:58:23;;;;;;;0.77;0.50;;;6.70;99.90;;;;;;4920495;29;20458;-65
2022/02/16 09:00:52;;;;;;;0.83;0.83;;;6.70;99.90;;;;;;4919345;29;20884;-66
2022/02/16 09:03:18;;;;;;;0.90;0.90;;;6.80;99.90;;;;;;4919462;29;20454;-66
2022/02/16 09:05:45;;;;;;;2.30;0.60;;;6.80;99.90;;;;;;4919327;29;20457;-65
2022/02/16 09:08:12;;;;;;;2.00;0.83;;;6.80;99.90;;;;;;4919391;29;20465;-66
2022/02/16 09:10:39;;;;;;;1.33;0.80;;;6.70;99.90;;;;;;4919507;29;20485;-65
2022/02/16 09:13:06;;;;;;;0.90;0.80;;;6.70;99.90;;;;;;4919566;29;20469;-66
2022/02/16 09:15:33;;;;;;;1.60;0.70;;;6.70;99.90;;;;;;4920063;29;20469;-66
2022/02/16 09:18:01;;;;;;;0.77;0.77;;;6.80;99.90;;;;;;4919854;29;20490;-65
2022/02/16 09:20:28;;;;;;;1.40;1.00;;;6.70;99.90;;;;;;4920115;29;20930;-66
2022/02/16 09:22:55;;;;;;;1.03;0.90;;;6.70;99.90;;;;;;4919896;29;20468;-67
2022/02/16 09:25:22;;;;;;;0.80;0.80;;;6.80;99.90;;;;;;4919921;29;20457;-66
2022/02/16 09:27:48;;;;;;;3.20;0.80;;;6.90;99.90;;;;;;4919381;29;20453;-66
2022/02/16 09:30:15;;;;;;;0.97;0.90;;;6.90;99.90;;;;;;4919081;29;20464;-66
2022/02/16 09:32:42;;;;;;;1.97;0.70;;;7.00;99.90;;;;;;4919773;29;20462;-65
2022/02/16 09:35:11;;;;;;;0.77;0.77;;;6.90;99.90;;;;;;4919162;29;20457;-66
2022/02/16 09:37:38;;;;;;;0.97;0.97;;;6.90;99.90;;;;;;4919094;29;20477;-66
2022/02/16 09:40:06;;;;;;;1.10;0.80;;;7.00;99.90;;;;;;4918821;29;20464;-65
2022/02/16 09:42:33;;;;;;;1.00;0.90;;;7.10;99.90;;;;;;4918867;29;20489;-66
2022/02/16 09:45:02;;;;;;;1.13;0.80;;;7.10;99.90;;;;;;4918453;29;20980;-66
2022/02/16 09:47:30;;;;;;;1.70;0.77;;;7.20;99.90;;;;;;4918808;29;20549;-66
2022/02/16 09:49:58;;;;;;;0.40;0.40;;;7.20;99.90;;;;;;4918593;29;20549;-66
2022/02/16 09:52:26;;;;;;;2.83;0.87;;;7.30;99.90;;;;;;4919022;29;20473;-66
2022/02/16 09:54:53;;;;;;;1.63;1.00;;;7.30;99.90;;;;;;4918880;29;20513;-66
2022/02/16 09:57:21;;;;;;;0.50;0.50;;;7.30;99.90;;;;;;4918678;29;20838;-68
2022/02/16 09:59:48;;;;;;;0.47;0.47;;;7.30;99.90;;;;;;4918860;29;20465;-67
2022/02/16 10:02:16;;;;;;;0.83;0.83;;;7.40;99.90;;;;;;4918505;29;20493;-66
2022/02/16 10:04:55;;;;;;;0.87;0.63;;;7.40;99.90;;;;;;4918957;29;20469;-66
2022/02/16 10:07:24;;;;;;;3.23;0.70;;;7.50;99.90;;;;;;4918627;29;20438;-66
2022/02/16 10:09:52;;;;;;;0.60;0.60;;;7.50;99.90;;;;;;4918802;29;20472;-66
2022/02/16 10:12:20;;;;;;;0.60;0.60;;;7.50;99.90;;;;;;4918638;29;20478;-66
2022/02/16 10:14:51;;;;;;;0.60;0.60;;;7.60;99.90;;;;;;4919799;29;20984;-66
2022/02/16 10:17:20;;;;;;;1.33;0.77;;;7.60;99.90;;;;;;4918580;29;20466;-67
2022/02/16 10:19:48;;;;;;;0.63;0.63;;;7.70;99.90;;;;;;4922041;29;20491;-66
2022/02/16 10:22:16;;;;;;;0.90;0.57;;;7.80;99.90;;;;;;4920458;29;20506;-66
2022/02/16 10:24:44;;;;;;;1.50;0.50;;;7.80;99.90;;;;;;4919420;29;20454;-67
2022/02/16 10:27:13;;;;;;;2.00;0.53;;;7.80;99.90;;;;;;4918160;29;21002;-66
2022/02/16 10:29:41;;;;;;;0.40;0.40;;;7.90;99.90;;;;;;4918208;29;20988;-66
2022/02/16 10:32:09;;;;;;;0.50;0.50;;;7.90;99.90;;;;;;4918559;29;20811;-67
2022/02/16 10:34:51;;;;;;;1.43;0.80;;;7.90;99.90;;;;;;4918246;29;20825;-66
2022/02/16 10:37:21;;;;;;;0.80;0.80;;;7.90;99.90;;;;;;4924625;29;20528;-66
2022/02/16 10:40:02;;;;;;;3.97;0.93;;;8.00;99.90;;;;;;4926345;29;20446;-67
2022/02/16 10:42:31;;;;;;;0.80;0.80;;;8.00;99.90;;;;;;4918799;29;20946;-66
2022/02/16 10:45:09;;;;;;;0.60;0.60;;;8.10;99.90;;;;;;4918554;29;20492;-66
2022/02/16 10:47:57;;;;;;;0.50;0.50;;;8.20;99.90;;;;;;4918553;29;20448;-66
2022/02/16 10:50:26;;;;;;;0.80;0.60;;;8.30;99.90;;;;;;4918105;29;20446;-67
2022/02/16 10:52:55;;;;;;;0.50;0.50;;;8.30;99.90;;;;;;4918605;29;20457;-65
2022/02/16 10:55:45;;;;;;;0.60;0.50;;;8.40;99.90;;;;;;4918151;29;20462;-66
2022/02/16 10:58:15;;;;;;;0.40;0.40;;;8.50;99.90;;;;;;4917875;29;20478;-66
2022/02/16 11:00:44;;;;;;;0.57;0.57;;;8.60;99.90;;;;;;4917662;29;20860;-67
2022/02/16 11:03:20;;;;;;;0.60;0.60;;;8.70;99.90;;;;;;4918344;29;20465;-66
2022/02/16 11:05:48;;;;;;;0.50;0.50;;;8.70;99.90;;;;;;4918012;29;20449;-66
2022/02/16 11:08:16;;;;;;;0.50;0.50;;;8.70;99.90;;;;;;4917758;29;20465;-65
2022/02/16 11:10:46;;;;;;;0.50;0.50;;;8.90;99.90;;;;;;4917570;29;20509;-66
2022/02/16 11:13:18;;;;;;;1.40;0.57;;;8.90;99.90;;;;;;4918533;29;20465;-66
2022/02/16 11:15:47;;;;;;;0.40;0.40;;;9.00;99.90;;;;;;4918759;29;20474;-66
2022/02/16 11:18:15;;;;;;;0.40;0.40;;;9.20;99.90;;;;;;4917999;29;20536;-67
2022/02/16 11:20:42;;;;;;;0.50;0.50;;;9.20;99.90;;;;;;4918263;29;20833;-68
2022/02/16 11:23:10;;;;;;;0.40;0.40;;;9.30;99.90;;;;;;4919126;29;20938;-67
2022/02/16 11:25:40;;;;;;;0.70;0.70;;;9.40;99.90;;;;;;4917948;29;20472;-66
2022/02/16 11:28:12;;;;;;;0.50;0.50;;;9.40;99.90;;;;;;4918414;29;20492;-67
2022/02/16 11:30:41;;;;;;;0.33;0.33;;;9.50;99.90;;;;;;4917521;29;20478;-67
2022/02/16 11:33:20;;;;;;;0.97;0.50;;;9.50;99.90;;;;;;4918015;29;20468;-66
2022/02/16 11:35:49;;;;;;;0.70;0.70;;;9.60;99.90;;;;;;4917640;29;20441;-66
2022/02/16 11:38:19;;;;;;;0.70;0.70;;;9.60;99.90;;;;;;4917858;29;20469;-67
2022/02/16 11:40:47;;;;;;;0.77;0.77;;;9.70;99.90;;;;;;4917963;29;20476;-66
2022/02/16 11:43:16;;;;;;;0.87;0.53;;;9.80;99.90;;;;;;4921065;29;20461;-66
2022/02/16 11:45:51;;;;;;;0.53;0.53;;;9.90;99.90;;;;;;4921058;29;20461;-67
2022/02/16 11:48:43;;;;;;;0.70;0.70;;;10.00;99.90;;;;;;4920964;29;20884;-66
2022/02/16 11:51:33;;;;;;;0.60;0.60;;;10.00;99.90;;;;;;4924161;29;21052;-66
2022/02/16 11:54:45;;;;;;;0.50;0.50;;;10.10;99.90;;;;;;4923207;29;20450;-66
2022/02/16 11:57:48;;;;;;;0.70;0.70;;;10.30;99.90;;;;;;4923975;29;20476;-67
2022/02/16 12:00:30;;;;;;;1.33;0.60;;;10.40;99.90;;;;;;4922255;29;20442;-66
2022/02/16 12:03:25;;;;;;;0.70;0.70;;;10.40;99.90;;;;;;4922915;29;20528;-65
2022/02/16 12:06:08;;;;;;;0.50;0.50;;;10.40;99.90;;;;;;4923490;29;20909;-66
2022/02/16 12:08:37;;;;;;;0.63;0.63;;;10.50;99.90;;;;;;4922423;29;20541;-67
2022/02/16 12:11:28;;;;;;;0.50;0.50;;;10.60;99.90;;;;;;4920471;29;20848;-66
2022/02/16 12:13:58;;;;;;;0.50;0.50;;;10.60;99.90;;;;;;4920573;29;20909;-67
2022/02/16 12:16:28;;;;;;;1.43;0.70;;;10.60;99.90;;;;;;4920428;29;20442;-67
2022/02/16 12:18:56;;;;;;;2.20;0.60;;;10.60;99.90;;;;;;4920553;29;20489;-68
2022/02/16 12:21:25;;;;;;;0.90;0.90;;;10.50;99.90;;;;;;4921367;29;20477;-67
2022/02/16 12:23:59;;;;;;;0.60;0.60;;;10.50;99.90;;;;;;4922907;29;20462;-68
2022/02/16 12:26:29;;;;;;;0.50;0.50;;;10.30;99.90;;;;;;4921691;29;20925;-67
2022/02/16 12:29:00;;;;;;;0.60;0.60;;;10.30;99.90;;;;;;4920520;29;20886;-67
2022/02/16 12:31:30;;;;;;;0.40;0.40;;;10.10;99.90;;;;;;4919936;29;21035;-66
2022/02/16 12:34:05;;;;;;;0.87;0.50;;;10.00;99.90;;;;;;4920838;29;20493;-66
2022/02/16 12:36:32;;;;;;;0.50;0.50;;;9.90;99.90;;;;;;4920728;29;20532;-66
2022/02/16 12:39:01;;;;;;;0.40;0.40;;;9.70;99.90;;;;;;4919549;29;21011;-68
2022/02/16 12:41:30;;;;;;;2.77;0.63;;;9.70;99.90;;;;;;4920333;29;20477;-67
2022/02/16 12:43:59;;;;;;;0.47;0.47;;;9.70;99.90;;;;;;4920628;29;20509;-67
2022/02/16 12:46:29;;;;;;;0.50;0.50;;;9.70;99.90;;;;;;4919723;29;20461;-66
2022/02/16 12:48:56;;;;;;;0.87;0.40;;;9.60;99.90;;;;;;4920519;29;20801;-67
2022/02/16 12:51:26;;;;;;;1.57;0.93;;;9.70;99.90;;;;;;4923849;29;20506;-67
2022/02/16 12:53:53;;;;;;;0.50;0.50;;;9.70;99.90;;;;;;4925024;29;20492;-67
2022/02/16 12:56:20;;;;;;;0.40;0.40;;;9.70;99.90;;;;;;4920092;29;20544;-66
2022/02/16 12:58:48;;;;;;;0.47;0.47;;;9.70;99.90;;;;;;4920192;29;20482;-67
2022/02/16 13:01:16;;;;;;;0.50;0.50;;;9.80;99.90;;;;;;4919376;29;21087;-66
2022/02/16 13:03:43;;;;;;;0.40;0.40;;;9.80;99.90;;;;;;4920030;29;20493;-65
2022/02/16 13:06:10;;;;;;;0.40;0.40;;;9.90;99.90;;;;;;4920262;29;20468;-67
2022/02/16 13:08:38;;;;;;;0.50;0.40;;;9.90;99.90;;;;;;4919588;29;20517;-67
2022/02/16 13:11:06;;;;;;;0.40;0.40;;;9.90;99.90;;;;;;4919512;29;20482;-67
2022/02/16 13:13:34;;;;;;;0.60;0.37;;;10.00;99.90;;;;;;4919247;29;20997;-67
2022/02/16 13:16:05;;;;;;;0.60;0.60;;;10.10;99.90;;;;;;4919612;29;20464;-67
2022/02/16 13:18:34;;;;;;;1.30;0.50;;;10.10;99.90;;;;;;4919069;29;20469;-67
2022/02/16 13:21:10;;;;;;;0.60;0.60;;;10.20;99.90;;;;;;4919287;29;20849;-67
2022/02/16 13:23:37;;;;;;;0.60;0.37;;;10.20;99.90;;;;;;4924574;29;20556;-67
2022/02/16 13:26:06;;;;;;;0.40;0.40;;;10.20;99.90;;;;;;4922798;29;20453;-67
2022/02/16 13:28:34;;;;;;;0.50;0.50;;;10.30;99.90;;;;;;4919549;29;20457;-68
2022/02/16 13:31:17;;;;;;;0.70;0.60;;;10.40;99.90;;;;;;4919498;29;20505;-68
2022/02/16 13:33:55;;;;;;;0.50;0.50;;;10.50;99.90;;;;;;4919238;29;20902;-66
2022/02/16 13:36:26;;;;;;;1.70;0.30;;;10.50;99.90;;;;;;4919113;29;20450;-66
2022/02/16 13:39:09;;;;;;;0.50;0.50;;;10.50;99.90;;;;;;4918687;29;20965;-66
2022/02/16 13:41:36;;;;;;;0.80;0.47;;;10.50;99.90;;;;;;4919289;29;20516;-66
2022/02/16 13:44:03;;;;;;;2.50;0.40;;;10.60;99.90;;;;;;4920800;29;20552;-66
2022/02/16 13:46:46;;;;;;;0.37;0.37;;;10.60;99.90;;;;;;4920445;29;20926;-66
2022/02/16 13:49:14;;;;;;;0.50;0.40;;;10.70;99.90;;;;;;4922420;29;20460;-67
2022/02/16 13:51:49;;;;;;;1.50;0.60;;;10.70;99.90;;;;;;4925671;29;20481;-67
2022/02/16 13:54:20;;;;;;;0.57;0.50;;;10.70;99.90;;;;;;4921809;29;20488;-67
2022/02/16 13:56:57;;;;;;;0.40;0.40;;;10.80;99.90;;;;;;4918911;29;20465;-67
2022/02/16 13:59:23;;;;;;;0.40;0.40;;;10.80;99.90;;;;;;4918900;29;20539;-66
2022/02/16 14:02:10;;;;;;;0.80;0.80;;;10.90;99.90;;;;;;4918560;29;20496;-67
2022/02/16 14:04:38;;;;;;;0.40;0.40;;;10.90;99.90;;;;;;4918278;29;20449;-66
2022/02/16 14:07:06;;;;;;;0.50;0.50;;;11.00;99.90;;;;;;4918768;29;20457;-67
2022/02/16 14:09:33;;;;;;;0.40;0.40;;;11.00;99.90;;;;;;4918950;29;20545;-67
2022/02/16 14:12:00;;;;;;;0.93;0.30;;;11.00;99.90;;;;;;4918739;29;20826;-67
2022/02/16 14:14:27;;;;;;;0.43;0.43;;;11.00;99.90;;;;;;4918877;29;20458;-66
2022/02/16 14:16:53;;;;;;;0.40;0.40;;;11.00;99.90;;;;;;4922794;29;20458;-66
2022/02/16 14:19:24;;;;;;;0.40;0.40;;;11.00;99.90;;;;;;4932633;29;20485;-67
2022/02/16 14:21:54;;;;;;;0.30;0.30;;;11.10;99.90;;;;;;4933509;29;21085;-67
2022/02/16 14:24:22;;;;;;;1.20;0.37;;;11.10;99.90;;;;;;4933384;29;20464;-67
2022/02/16 14:26:49;;;;;;;0.50;0.50;;;11.10;99.90;;;;;;4930459;29;20460;-67
2022/02/16 14:29:15;;;;;;;0.50;0.50;;;11.10;99.90;;;;;;4919054;29;20462;-66
2022/02/16 14:31:42;;;;;;;0.40;0.40;;;11.10;99.90;;;;;;4918684;29;20497;-67
2022/02/16 14:34:09;;;;;;;0.47;0.47;;;11.10;99.90;;;;;;4918392;29;20973;-67
2022/02/16 14:36:39;;;;;;;0.30;0.30;;;11.10;99.90;;;;;;4918837;29;20472;-67
2022/02/16 14:39:06;;;;;;;0.40;0.40;;;11.00;99.90;;;;;;4918902;29;20481;-67
2022/02/16 14:41:34;;;;;;;1.13;0.60;;;11.10;99.90;;;;;;4918997;29;20481;-65
2022/02/16 14:44:01;;;;;;;0.77;0.77;;;11.10;99.90;;;;;;4918302;29;20945;-67
2022/02/16 14:46:27;;;;;;;0.40;0.40;;;11.20;99.90;;;;;;4918054;29;20457;-66
2022/02/16 14:48:54;;;;;;;0.40;0.40;;;11.20;99.90;;;;;;4918202;29;20461;-66
2022/02/16 14:51:21;;;;;;;0.37;0.37;;;11.20;99.90;;;;;;4918150;29;20492;-66
2022/02/16 14:53:50;;;;;;;0.40;0.40;;;11.20;99.90;;;;;;4917977;29;20462;-67
2022/02/16 14:56:17;;;;;;;0.50;0.50;;;11.20;99.90;;;;;;4930523;29;20464;-66
2022/02/16 14:58:44;;;;;;;0.93;0.50;;;11.30;99.90;;;;;;4928163;29;20477;-65
2022/02/16 15:01:11;;;;;;;0.60;0.50;;;11.30;99.90;;;;;;4923620;29;21084;-65
2022/02/16 15:03:37;;;;;;;0.40;0.40;;;11.20;99.90;;;;;;4918101;29;20465;-65
2022/02/16 15:06:05;;;;;;;1.30;0.47;;;11.10;99.90;;;;;;4918088;29;20465;-66
2022/02/16 15:08:32;;;;;;;0.43;0.43;;;11.20;99.90;;;;;;4918084;29;20450;-66
2022/02/16 15:11:00;;;;;;;0.40;0.40;;;11.20;99.90;;;;;;4917602;29;20486;-66
2022/02/16 15:13:28;;;;;;;0.97;0.60;;;11.20;99.90;;;;;;4918115;29;20461;-65
2022/02/16 15:15:55;;;;;;;0.90;0.40;;;11.20;99.90;;;;;;4918660;29;20501;-67
2022/02/16 15:18:22;;;;;;;0.30;0.30;;;11.20;99.90;;;;;;4922056;29;20482;-66
2022/02/16 15:20:49;;;;;;;0.50;0.50;;;11.10;99.90;;;;;;4921856;29;20482;-65
2022/02/16 15:23:16;;;;;;;0.60;0.50;;;11.20;99.90;;;;;;4922584;29;20488;-66
2022/02/16 15:25:43;;;;;;;0.60;0.60;;;11.20;99.90;;;;;;4921470;29;20461;-66
2022/02/16 15:28:11;;;;;;;0.50;0.50;;;11.20;99.90;;;;;;4921209;29;20870;-66
2022/02/16 15:30:40;;;;;;;0.37;0.37;;;11.20;99.90;;;;;;4921811;29;20490;-66
2022/02/16 15:33:07;;;;;;;0.47;0.47;;;11.20;99.90;;;;;;4921380;29;20457;-66
2022/02/16 15:35:36;;;;;;;0.50;0.50;;;11.20;99.90;;;;;;4925444;29;20534;-66
2022/02/16 15:38:03;;;;;;;0.67;0.50;;;11.20;99.90;;;;;;4930773;29;20513;-66
2022/02/16 15:40:30;;;;;;;0.47;0.47;;;11.20;99.90;;;;;;4928464;29;20457;-64
2022/02/16 15:42:57;;;;;;;0.67;0.50;;;11.20;99.90;;;;;;4922843;29;20461;-68
2022/02/16 15:45:25;;;;;;;0.50;0.50;;;11.20;99.90;;;;;;4921812;29;20814;-68
2022/02/16 15:47:52;;;;;;;0.90;0.50;;;11.20;99.90;;;;;;4921766;29;20457;-68
2022/02/16 15:50:19;;;;;;;0.40;0.40;;;11.20;99.90;;;;;;4921584;29;20458;-68
2022/02/16 15:52:46;;;;;;;0.40;0.40;;;11.20;99.90;;;;;;4922784;29;20465;-69
2022/02/16 15:55:13;;;;;;;0.90;0.50;;;11.30;99.90;;;;;;4933509;29;20469;-68
2022/02/16 15:57:40;;;;;;;0.50;0.50;;;11.30;99.90;;;;;;4938973;29;20449;-68
2022/02/16 16:00:08;;;;;;;0.50;0.50;;;11.30;99.90;;;;;;4938820;29;20849;-69
2022/02/16 16:02:36;;;;;;;0.70;0.50;;;11.30;99.90;;;;;;4935881;29;20537;-68
2022/02/16 16:05:05;;;;;;;1.13;0.70;;;11.40;99.90;;;;;;4932926;29;20522;-68
2022/02/16 16:07:32;;;;;;;0.50;0.50;;;11.40;99.90;;;;;;4930167;29;20471;-68
2022/02/16 16:09:59;;;;;;;0.97;0.50;;;11.40;99.90;;;;;;4937018;29;20457;-68
2022/02/16 16:12:25;;;;;;;0.47;0.47;;;11.40;99.90;;;;;;4936342;29;20469;-68
2022/02/16 16:14:52;;;;;;;1.33;0.70;;;11.30;99.90;;;;;;4934086;29;20531;-68
2022/02/16 16:17:19;;;;;;;0.30;0.30;;;11.30;99.90;;;;;;4931905;29;20449;-68
2022/02/16 16:19:47;;;;;;;1.03;0.40;;;11.30;99.90;;;;;;4922217;29;20821;-67
2022/02/16 16:22:14;;;;;;;0.40;0.40;;;11.30;99.90;;;;;;4923533;29;20485;-68
2022/02/16 16:24:42;;;;;;;0.43;0.40;;;11.30;99.90;;;;;;4923381;29;20484;-68
2022/02/16 16:27:09;;;;;;;0.30;0.30;;;11.40;99.90;;;;;;4927808;29;20465;-68
2022/02/16 16:29:35;;;;;;;0.50;0.50;;;11.30;99.90;;;;;;4935504;29;20456;-68
2022/02/16 16:32:02;;;;;;;0.40;0.40;;;11.30;99.90;;;;;;4927940;29;20977;-69
2022/02/16 16:34:29;;;;;;;0.73;0.40;;;11.30;99.90;;;;;;4923349;29;20790;-68
2022/02/16 16:37:00;;;;;;;0.50;0.50;;;11.30;99.90;;;;;;4922440;29;20469;-68
2022/02/16 16:39:27;;;;;;;0.40;0.40;;;11.30;99.90;;;;;;4922270;29;20470;-68
2022/02/16 16:41:53;;;;;;;0.43;0.40;;;11.30;99.90;;;;;;4924217;29;20541;-68
2022/02/16 16:44:20;;;;;;;0.70;0.67;;;11.30;99.90;;;;;;4924389;29;20461;-68
2022/02/16 16:46:47;;;;;;;1.53;0.60;;;11.40;99.90;;;;;;4925443;29;20468;-67
2022/02/16 16:49:14;;;;;;;0.50;0.50;;;11.40;99.90;;;;;;4929103;29;20453;-68
2022/02/16 16:51:41;;;;;;;0.40;0.40;;;11.40;99.90;;;;;;4929423;29;20485;-67
2022/02/16 16:54:09;;;;;;;0.50;0.50;;;11.40;99.90;;;;;;4930168;29;20457;-68
2022/02/16 16:56:38;;;;;;;0.60;0.60;;;11.40;99.90;;;;;;4933276;29;20461;-68
2022/02/16 16:59:05;;;;;;;0.83;0.70;;;11.40;99.90;;;;;;4930555;29;20489;-68
2022/02/16 17:01:32;;;;;;;0.57;0.57;;;11.50;99.90;;;;;;4929662;29;20521;-68
2022/02/16 17:03:58;;;;;;;1.07;0.77;;;11.40;99.90;;;;;;4926402;29;20472;-68
2022/02/16 17:06:25;;;;;;;0.50;0.50;;;11.50;99.90;;;;;;4920987;29;20493;-68
2022/02/16 17:08:52;;;;;;;1.37;1.10;;;11.50;99.90;;;;;;4921258;29;20462;-69
2022/02/16 17:11:20;;;;;;;1.13;1.13;;;11.50;99.90;;;;;;4919661;29;20488;-68
2022/02/16 17:13:47;;;;;;;0.80;0.80;;;11.60;99.90;;;;;;4919692;29;20949;-68
2022/02/16 17:16:14;;;;;;;0.73;0.73;;;11.50;99.90;;;;;;4919383;29;20465;-68
2022/02/16 17:18:41;;;;;;;0.97;0.97;;;11.50;99.90;;;;;;4918999;29;20485;-68
2022/02/16 17:21:08;;;;;;;1.13;0.77;;;11.60;99.90;;;;;;4919149;29;20482;-68
2022/02/16 17:23:35;;;;;;;0.80;0.80;;;11.60;99.90;;;;;;4919712;29;20446;-68
2022/02/16 17:26:01;;;;;;;0.87;0.57;;;11.60;99.90;;;;;;4919449;29;20454;-67
2022/02/16 17:28:30;;;;;;;0.80;0.60;;;11.60;99.90;;;;;;4919898;29;20453;-69
2022/02/16 17:30:56;;;;;;;0.93;0.70;;;11.60;99.90;;;;;;4919781;29;20477;-68
2022/02/16 17:33:23;;;;;;;0.80;0.80;;;11.60;99.90;;;;;;4919941;29;20469;-67
2022/02/16 17:35:50;;;;;;;0.90;0.90;;;11.60;99.90;;;;;;4919708;29;20466;-67
2022/02/16 17:38:17;;;;;;;1.00;1.00;;;11.60;99.90;;;;;;4920264;29;20469;-68
2022/02/16 17:40:44;;;;;;;0.90;0.90;;;11.60;99.90;;;;;;4919694;29;21015;-68
2022/02/16 17:43:10;;;;;;;1.00;0.90;;;11.60;99.90;;;;;;4919440;29;20461;-68
2022/02/16 17:45:38;;;;;;;0.70;0.70;;;11.60;99.90;;;;;;4919296;29;20458;-68
2022/02/16 17:48:07;;;;;;;0.70;0.60;;;11.60;99.90;;;;;;4919082;29;20829;-67
2022/02/16 17:50:33;;;;;;;0.57;0.57;;;11.60;99.90;;;;;;4918690;29;20458;-68
2022/02/16 17:53:00;;;;;;;0.67;0.67;;;11.60;99.90;;;;;;4919001;29;20819;-70
2022/02/16 17:55:27;;;;;;;0.80;0.80;;;11.60;99.90;;;;;;4921066;29;20464;-69
2022/02/16 17:57:54;;;;;;;1.00;1.00;;;11.60;99.90;;;;;;4927883;29;20461;-68
2022/02/16 18:00:29;;;;;;;1.03;1.03;;;11.60;99.90;;;;;;4929621;29;20482;-68